Time;durP1;ratioP1;P1;durP2;ratioP2;P2;SDS_P1;SDS_P2;PMS_P1;PMS_P2;Temp;Humidity;BMP_temperature;BMP_pressure;BME280_temperature;BME280_humidity;BME280_pressure;Samples;Min_cycle;Max_cycle;Signal;HPM_P1;HPM_P2
2022/01/08 00:39:34;;;;;;;22.65;8.35;;;;;;;-0.55;74.37;99368.58;1728611;79;21283;31
2022/01/08 00:48:09;;;;;;;23.60;7.55;;;;;;;-0.40;74.08;99364.22;1741554;78;21137;-79
2022/01/08 01:00:06;;;;;;;22.02;9.05;;;;;;;-0.37;74.16;99351.53;1750462;79;21119;-81
2022/01/08 01:02:34;;;;;;;27.58;9.75;;;;;;;-0.34;74.10;99356.70;1721076;80;21087;-82
2022/01/08 01:05:04;;;;;;;25.15;9.83;;;;;;;-0.31;75.08;99358.48;1724655;79;21104;-80
2022/01/08 01:07:36;;;;;;;25.80;10.50;;;;;;;-0.26;74.21;99362.88;1711035;81;21158;-75
2022/01/08 01:10:06;;;;;;;24.07;10.45;;;;;;;-0.31;74.30;99363.17;1711988;78;20993;-79
2022/01/08 01:25:15;;;;;;;29.72;12.05;;;;;;;-0.11;75.43;99351.26;1749763;78;21144;-81
2022/01/08 01:28:07;;;;;;;26.97;10.58;;;;;;;-0.02;75.83;99345.05;1712338;78;21147;-79
2022/01/08 01:50:14;;;;;;;23.22;8.75;;;;;;;-0.23;75.58;99313.09;1711265;80;21122;-83
2022/01/08 01:52:41;;;;;;;22.93;8.95;;;;;;;-0.23;76.23;99317.36;1701357;84;21043;-82
2022/01/08 01:55:09;;;;;;;25.45;8.83;;;;;;;-0.24;76.50;99316.89;1702623;84;21051;-83
2022/01/08 01:57:39;;;;;;;16.23;7.53;;;;;;;-0.22;75.58;99311.00;1723936;79;21085;-82
2022/01/08 02:03:17;;;;;;;17.87;6.83;;;;;;;-0.21;76.04;99299.94;1705856;78;21165;-75
2022/01/08 02:08:49;;;;;;;20.95;6.72;;;;;;;-0.17;75.87;99302.58;1738128;79;21122;-83
2022/01/08 02:11:20;;;;;;;15.85;7.28;;;;;;;-0.16;76.45;99294.95;1750554;79;20997;-74
2022/01/08 02:13:48;;;;;;;17.62;7.08;;;;;;;-0.11;76.80;99298.44;1733278;78;21301;-78
2022/01/08 02:16:20;;;;;;;18.07;7.87;;;;;;;-0.02;76.93;99298.64;1732348;78;21093;-78
2022/01/08 02:18:47;;;;;;;16.25;7.87;;;;;;;0.05;76.94;99291.95;1728710;79;21079;-82
2022/01/08 02:21:15;;;;;;;19.25;7.67;;;;;;;0.11;76.34;99292.50;1757694;77;22378;-77
2022/01/08 02:23:43;;;;;;;20.75;8.73;;;;;;;0.09;76.41;99279.67;1718716;79;21378;-82
2022/01/08 02:26:12;;;;;;;18.82;8.48;;;;;;;0.09;76.49;99276.27;1733907;78;21176;-75
2022/01/08 02:32:03;;;;;;;22.93;7.67;;;;;;;0.09;76.22;99280.10;1733743;78;21943;-75
2022/01/08 02:34:37;;;;;;;19.05;7.78;;;;;;;0.09;76.57;99272.43;1726243;78;21146;31
2022/01/08 02:37:06;;;;;;;19.35;8.38;;;;;;;0.08;76.70;99272.86;1723173;78;21546;-79
2022/01/08 02:43:08;;;;;;;20.60;8.68;;;;;;;0.09;76.97;99265.62;1688821;79;21114;31
2022/01/08 02:45:35;;;;;;;15.93;7.50;;;;;;;0.10;77.48;99257.52;1700700;80;21068;-77
2022/01/08 02:48:04;;;;;;;12.47;6.22;;;;;;;0.12;76.58;99260.58;1714532;79;21073;-79
2022/01/08 02:50:31;;;;;;;21.95;7.97;;;;;;;0.09;76.26;99260.93;1721995;80;21059;-76
2022/01/08 02:52:59;;;;;;;16.85;7.15;;;;;;;-0.01;76.10;99262.02;1771931;77;21188;-78
2022/01/08 02:58:34;;;;;;;15.50;6.58;;;;;;;-0.11;76.81;99266.92;1750536;78;21117;-80
2022/01/08 03:07:22;;;;;;;15.90;6.80;;;;;;;-0.12;77.13;99261.34;1739672;78;21176;-80
2022/01/08 03:25:32;;;;;;;18.25;6.55;;;;;;;-0.05;77.14;99235.95;1725869;79;21152;-83
2022/01/08 03:28:00;;;;;;;20.82;6.90;;;;;;;-0.04;77.17;99245.36;1711521;79;22024;-82
2022/01/08 03:39:46;;;;;;;17.05;6.87;;;;;;;-0.08;77.36;99233.34;1758354;77;21102;-77
2022/01/08 03:42:14;;;;;;;19.82;7.30;;;;;;;-0.07;77.52;99231.22;1749117;77;21064;-75
2022/01/08 03:48:05;;;;;;;18.67;6.72;;;;;;;-0.05;77.54;99228.70;1724559;79;21158;-82
2022/01/08 03:53:27;;;;;;;19.95;7.28;;;;;;;-0.02;77.88;99210.85;1715180;79;21112;-84
2022/01/08 03:55:55;;;;;;;16.10;7.05;;;;;;;-0.04;78.18;99209.57;1757438;78;21238;-80
2022/01/08 03:58:22;;;;;;;18.12;8.08;;;;;;;-0.02;78.66;99214.30;1780771;78;21148;-80
2022/01/08 04:00:52;;;;;;;19.07;8.20;;;;;;;0.00;77.89;99215.61;1708930;79;21082;-79
2022/01/08 04:06:30;;;;;;;17.20;8.55;;;;;;;-0.02;78.64;99210.46;1705500;77;21052;-79
2022/01/08 04:08:58;;;;;;;19.00;8.10;;;;;;;-0.24;78.87;99177.25;1738343;78;21299;-81
2022/01/08 04:11:26;;;;;;;23.87;9.03;;;;;;;-0.07;79.26;99202.25;1741325;78;21072;-83
2022/01/08 04:13:56;;;;;;;16.45;8.18;;;;;;;-0.03;79.10;99204.03;1741437;78;21025;-82
2022/01/08 04:28:38;;;;;;;19.23;7.65;;;;;;;0.31;79.43;99188.89;1715002;79;21313;-76
2022/01/08 04:31:06;;;;;;;15.93;8.53;;;;;;;0.36;79.42;99193.68;1665812;83;21054;-84
2022/01/08 04:33:33;;;;;;;19.25;7.97;;;;;;;0.42;79.42;99186.93;1737977;79;21037;-78
2022/01/08 04:36:02;;;;;;;18.25;7.45;;;;;;;0.46;79.04;99183.58;1702438;78;21280;31
2022/01/08 04:38:35;;;;;;;20.88;8.05;;;;;;;0.48;79.07;99182.80;1698346;79;21221;31
2022/01/08 04:44:12;;;;;;;18.10;8.60;;;;;;;0.50;79.25;99180.27;1736172;80;20170;31
2022/01/08 04:46:41;;;;;;;17.57;8.45;;;;;;;0.51;78.81;99184.11;1700125;80;21170;-76
2022/01/08 04:52:12;;;;;;;16.15;7.28;;;;;;;0.41;77.88;99179.68;1723609;79;21178;-82
2022/01/08 04:57:50;;;;;;;17.85;7.62;;;;;;;0.14;77.96;99171.09;1744771;79;21050;-82
2022/01/08 05:03:29;;;;;;;15.20;7.55;;;;;;;-0.03;78.33;99187.00;1720857;78;21108;-78
2022/01/08 05:05:56;;;;;;;18.40;8.33;;;;;;;-0.02;78.49;99182.34;1722163;79;21094;-82
2022/01/08 05:08:24;;;;;;;52.88;20.70;;;;;;;0.00;78.02;99179.83;1757935;77;21027;-79
2022/01/08 05:10:51;;;;;;;46.40;21.33;;;;;;;-0.06;78.18;99174.17;1719576;80;21137;-82
2022/01/08 05:16:25;;;;;;;35.70;14.33;;;;;;;-0.09;78.27;99170.70;1703314;78;21106;-78
2022/01/08 05:18:57;;;;;;;25.37;13.60;;;;;;;-0.11;78.37;99159.59;1695336;78;21146;31
2022/01/08 05:21:27;;;;;;;25.90;10.78;;;;;;;-0.06;78.17;99156.68;1699457;78;21049;-77
2022/01/08 05:29:52;;;;;;;16.85;8.28;;;;;;;0.06;77.97;99153.48;1742084;78;21022;-80
2022/01/08 05:32:20;;;;;;;23.18;9.28;;;;;;;-0.02;78.29;99145.68;1730325;80;21101;-75
2022/01/08 05:40:40;;;;;;;23.30;8.83;;;;;;;-0.05;78.12;99160.55;1750155;79;21147;-81
2022/01/08 05:43:08;;;;;;;25.52;10.20;;;;;;;-0.04;78.12;99163.56;1764505;81;21075;-81
2022/01/08 05:45:36;;;;;;;20.95;9.23;;;;;;;-0.04;78.43;99161.41;1759739;81;21015;-83
2022/01/08 05:48:05;;;;;;;19.20;8.45;;;;;;;-0.03;78.31;99165.27;1766823;81;21059;-83
2022/01/08 05:50:33;;;;;;;21.70;8.73;;;;;;;0.00;78.22;99164.48;1766529;80;21047;-82
2022/01/08 05:59:04;;;;;;;18.60;8.43;;;;;;;0.09;78.54;99152.28;1734219;79;21089;-80
2022/01/08 06:01:35;;;;;;;22.73;9.23;;;;;;;0.14;78.64;99164.31;1751500;78;21123;-82
2022/01/08 06:10:38;;;;;;;17.35;8.43;;;;;;;0.29;78.39;99151.34;1672959;80;21111;31
2022/01/08 06:22:19;;;;;;;22.52;11.40;;;;;;;0.32;77.79;99160.33;1735330;77;21050;-79
2022/01/08 06:24:47;;;;;;;32.53;12.63;;;;;;;0.28;77.97;99155.61;1729343;77;21023;-80
2022/01/08 06:27:39;;;;;;;26.05;11.85;;;;;;;0.30;78.12;99149.22;1725647;79;21147;31
2022/01/08 06:30:07;;;;;;;28.95;14.38;;;;;;;0.29;77.94;99155.18;1746751;79;21509;-76
2022/01/08 06:32:35;;;;;;;34.78;15.48;;;;;;;0.30;77.79;99150.49;1752466;78;21178;-78
2022/01/08 06:35:03;;;;;;;36.63;13.98;;;;;;;0.24;77.85;99155.51;1717823;79;21117;-82
2022/01/08 06:37:34;;;;;;;223.57;66.77;;;;;;;0.19;78.21;99152.88;1733755;80;21047;31
2022/01/08 06:40:01;;;;;;;161.22;47.08;;;;;;;0.19;77.91;99152.88;1704587;82;21039;-83
2022/01/08 06:42:29;;;;;;;71.90;24.37;;;;;;;0.17;78.30;99159.23;1714232;78;21023;-79
2022/01/08 06:44:59;;;;;;;87.08;30.27;;;;;;;0.25;78.55;99164.92;1750040;79;21137;-76
2022/01/08 06:47:32;;;;;;;34.95;14.60;;;;;;;0.29;78.65;99156.03;1700158;80;21096;31
2022/01/08 06:50:07;;;;;;;30.70;13.45;;;;;;;0.36;78.87;99150.62;1667274;81;21111;31
2022/01/08 06:52:36;;;;;;;30.65;12.68;;;;;;;0.41;78.67;99157.09;1662140;82;21410;-83
2022/01/08 06:55:08;;;;;;;28.17;12.20;;;;;;;0.47;78.84;99150.36;1741033;79;21310;31
2022/01/08 07:00:39;;;;;;;35.92;15.35;;;;;;;0.64;78.72;99138.25;1733981;80;21218;-83
2022/01/08 07:03:10;;;;;;;39.90;17.25;;;;;;;0.62;78.36;99137.36;1744083;78;21239;31
2022/01/08 07:08:42;;;;;;;39.03;15.97;;;;;;;0.66;78.44;99134.91;1731348;78;21194;-82
2022/01/08 07:14:17;;;;;;;54.35;23.30;;;;;;;0.79;78.09;99132.94;1698085;80;21258;31
2022/01/08 07:16:59;;;;;;;48.53;20.00;;;;;;;0.78;78.08;99130.39;1706866;80;21131;31
2022/01/08 07:19:27;;;;;;;37.98;16.77;;;;;;;0.83;77.98;99131.30;1646287;83;21061;-82
2022/01/08 07:22:01;;;;;;;31.82;15.72;;;;;;;0.82;77.83;99128.70;1656113;81;22498;31
2022/01/08 07:30:19;;;;;;;28.65;11.83;;;;;;;0.91;77.81;99116.91;1621260;88;21076;-83
2022/01/08 07:48:01;;;;;;;25.08;10.75;;;;;;;1.12;76.89;99115.50;1765907;78;21098;31
2022/01/08 07:53:39;;;;;;;26.37;11.60;;;;;;;1.28;77.26;99112.28;1708306;80;21069;-83
2022/01/08 07:56:07;;;;;;;26.52;12.63;;;;;;;1.38;77.19;99110.27;1708086;79;22913;-82
2022/01/08 07:58:35;;;;;;;20.25;9.60;;;;;;;1.49;77.07;99116.82;1738047;82;20977;-81
2022/01/08 08:01:02;;;;;;;23.73;10.38;;;;;;;1.56;76.37;99105.78;1745863;81;21050;-82
2022/01/08 08:03:30;;;;;;;20.25;9.90;;;;;;;1.62;76.40;99107.98;1750029;81;21014;-86
2022/01/08 08:05:57;;;;;;;23.07;11.65;;;;;;;1.65;76.57;99111.45;1749747;81;21065;-84
2022/01/08 08:08:25;;;;;;;19.52;9.78;;;;;;;1.74;76.63;99111.53;1711306;83;21118;-85
2022/01/08 08:10:52;;;;;;;24.98;10.20;;;;;;;1.84;76.27;99112.48;1705441;84;21159;-86
2022/01/08 08:13:21;;;;;;;23.32;11.20;;;;;;;1.99;76.33;99109.23;1702729;84;21077;-88
2022/01/08 08:15:48;;;;;;;24.40;10.20;;;;;;;1.91;75.82;99103.14;1706347;81;21031;-86
2022/01/08 08:18:16;;;;;;;21.85;10.23;;;;;;;1.82;75.54;99099.22;1719756;79;21763;-86
2022/01/08 08:20:43;;;;;;;25.27;11.68;;;;;;;1.76;75.54;99102.15;1725398;83;20979;-83
2022/01/08 08:23:11;;;;;;;24.85;11.43;;;;;;;1.82;76.06;99094.09;1728204;82;21109;-84
2022/01/08 08:25:38;;;;;;;25.52;11.73;;;;;;;1.95;76.15;99090.39;1729250;83;21041;-86
2022/01/08 08:28:07;;;;;;;22.52;10.68;;;;;;;2.06;75.47;99094.75;1726607;82;21039;-86
2022/01/08 08:30:35;;;;;;;27.58;11.55;;;;;;;2.19;75.98;99089.74;1730773;80;21161;-88
2022/01/08 08:33:03;;;;;;;22.30;9.20;;;;;;;2.15;75.53;99080.30;1733135;81;21059;-89
2022/01/08 08:35:32;;;;;;;36.08;13.43;;;;;;;2.22;75.68;99082.48;1700362;79;21074;-89
2022/01/08 08:38:02;;;;;;;34.58;13.68;;;;;;;2.26;75.21;99079.09;1695604;78;21166;-88
2022/01/08 08:40:30;;;;;;;26.30;12.65;;;;;;;2.37;75.11;99068.94;1693485;83;21213;-88
2022/01/08 08:42:58;;;;;;;25.72;11.55;;;;;;;2.44;74.89;99065.98;1677970;81;21124;-87
2022/01/08 08:45:26;;;;;;;28.02;11.68;;;;;;;2.52;74.77;99063.04;1645072;85;21125;-88
2022/01/08 08:47:56;;;;;;;28.05;10.90;;;;;;;2.56;75.05;99060.92;1644283;86;21063;-83
2022/01/08 08:50:24;;;;;;;25.20;11.85;;;;;;;2.63;74.91;99059.28;1682914;80;21089;-89
2022/01/08 08:52:54;;;;;;;20.17;10.53;;;;;;;2.67;74.26;99045.18;1708326;79;21087;-90
2022/01/08 08:55:22;;;;;;;24.43;10.98;;;;;;;2.71;74.17;99043.49;1744586;79;21585;-87
2022/01/08 08:57:49;;;;;;;32.05;13.35;;;;;;;2.70;74.18;99055.45;1736647;81;21046;-88
2022/01/08 09:00:17;;;;;;;24.45;11.70;;;;;;;2.84;74.25;99050.83;1702134;83;20995;-88
2022/01/08 09:02:44;;;;;;;23.12;9.95;;;;;;;2.97;74.87;99044.91;1734951;79;21082;-84
2022/01/08 09:05:13;;;;;;;30.48;12.58;;;;;;;2.90;73.92;99044.44;1734493;80;21287;-83
2022/01/08 09:07:40;;;;;;;28.15;13.32;;;;;;;2.88;73.31;99047.42;1723024;80;21089;-88
2022/01/08 09:10:09;;;;;;;22.52;11.28;;;;;;;2.97;73.90;99047.48;1716427;83;21498;-87
2022/01/08 09:12:39;;;;;;;25.08;9.88;;;;;;;2.99;73.25;99057.33;1736600;79;21100;-89
2022/01/08 09:15:10;;;;;;;29.10;13.05;;;;;;;3.08;73.80;99057.78;1715800;80;21138;-87
2022/01/08 09:17:40;;;;;;;22.35;9.93;;;;;;;3.04;73.25;99049.64;1693300;78;21101;-88
2022/01/08 09:20:10;;;;;;;20.30;9.50;;;;;;;2.98;73.13;99046.20;1695920;82;21381;-81
2022/01/08 09:22:38;;;;;;;25.32;10.72;;;;;;;3.03;72.85;99044.94;1748718;80;21069;-83
2022/01/08 09:25:07;;;;;;;24.65;10.00;;;;;;;3.03;73.31;99036.38;1726842;80;21014;-83
2022/01/08 09:27:35;;;;;;;20.60;10.20;;;;;;;3.03;72.82;99027.39;1708736;81;21059;-85
2022/01/08 09:30:05;;;;;;;24.77;11.08;;;;;;;3.09;73.41;99019.27;1737420;80;21182;-88
2022/01/08 09:32:33;;;;;;;21.00;9.88;;;;;;;3.06;72.93;99022.25;1717102;81;21148;-89
2022/01/08 09:35:02;;;;;;;25.75;10.35;;;;;;;3.08;72.93;99016.69;1730159;82;21128;-89
2022/01/08 09:37:33;;;;;;;21.65;10.32;;;;;;;2.99;72.28;99009.38;1717675;80;21359;-83
2022/01/08 09:40:01;;;;;;;28.17;10.45;;;;;;;2.97;72.60;99003.38;1706067;83;21085;-82
2022/01/08 09:42:29;;;;;;;25.97;10.58;;;;;;;3.05;73.23;99002.13;1716109;82;21031;-83
2022/01/08 09:44:56;;;;;;;19.15;9.28;;;;;;;3.14;72.43;98994.87;1727222;82;21023;-84
2022/01/08 09:47:24;;;;;;;24.90;12.30;;;;;;;3.19;72.96;98987.62;1725578;81;21001;-84
2022/01/08 09:49:52;;;;;;;22.67;10.93;;;;;;;3.27;72.75;98985.07;1721325;83;21092;-83
2022/01/08 09:52:20;;;;;;;22.48;10.35;;;;;;;3.26;72.84;98980.77;1723511;82;21032;-87
2022/01/08 09:54:47;;;;;;;23.98;11.15;;;;;;;3.22;72.42;98977.77;1725956;82;20983;-85
2022/01/08 09:57:14;;;;;;;23.20;11.68;;;;;;;3.27;72.78;98971.37;1722999;82;20999;-80
2022/01/08 09:59:42;;;;;;;30.35;11.95;;;;;;;3.27;72.60;98965.80;1724490;83;21039;-80
2022/01/08 10:02:10;;;;;;;27.42;11.83;;;;;;;3.20;72.21;98964.06;1727133;83;21049;-83
2022/01/08 10:04:41;;;;;;;26.33;11.83;;;;;;;3.19;72.93;98967.06;1725810;82;21519;-80
2022/01/08 10:07:23;;;;;;;22.15;10.85;;;;;;;3.20;72.87;98965.34;1720670;82;21060;-82
2022/01/08 10:10:10;;;;;;;25.80;12.07;;;;;;;3.18;72.97;98963.20;1702098;83;21049;-81
2022/01/08 10:12:55;;;;;;;24.32;11.35;;;;;;;3.19;73.11;98957.22;1697918;83;21035;-85
2022/01/08 10:18:35;;;;;;;23.00;10.98;;;;;;;3.17;73.14;98953.80;1766213;79;21023;-89
2022/01/08 10:21:25;;;;;;;27.98;11.63;;;;;;;3.13;73.08;98954.20;1770165;78;21044;-85
2022/01/08 10:24:06;;;;;;;25.95;11.03;;;;;;;3.22;73.45;98949.50;1767047;78;21076;-84
2022/01/08 10:26:41;;;;;;;23.87;11.12;;;;;;;3.27;73.44;98942.68;1736552;79;21079;-85
2022/01/08 10:29:16;;;;;;;26.77;11.80;;;;;;;3.37;73.68;98936.69;1754519;78;21051;-90
2022/01/08 10:31:50;;;;;;;30.23;11.40;;;;;;;3.54;73.24;98948.70;1723441;77;21393;-89
2022/01/08 10:34:22;;;;;;;31.25;12.15;;;;;;;3.38;73.22;98917.86;1775432;79;20980;-86
2022/01/08 10:37:05;;;;;;;27.13;12.30;;;;;;;3.63;73.46;98941.00;1765735;78;21044;-86
2022/01/08 10:39:36;;;;;;;27.40;12.53;;;;;;;3.71;72.89;98930.72;1750003;79;21084;-88
2022/01/08 10:42:14;;;;;;;27.73;12.73;;;;;;;3.79;72.94;98937.56;1709893;82;21054;-85
2022/01/08 10:44:44;;;;;;;27.80;13.30;;;;;;;3.86;72.53;98930.73;1690346;83;21029;-85
2022/01/08 10:47:19;;;;;;;30.60;13.75;;;;;;;4.01;72.60;98929.84;1709350;82;21028;-84
2022/01/08 10:50:06;;;;;;;35.55;14.63;;;;;;;4.12;72.47;98927.27;1712832;81;21091;-89
2022/01/08 10:52:48;;;;;;;33.70;14.75;;;;;;;4.26;71.84;98919.08;1730937;81;21062;-84
2022/01/08 10:55:32;;;;;;;33.58;14.28;;;;;;;4.43;71.59;98919.45;1738841;81;21066;-86
2022/01/08 10:57:59;;;;;;;29.80;13.98;;;;;;;4.74;70.48;98908.63;1713378;81;21062;-88
2022/01/08 11:00:32;;;;;;;32.88;14.20;;;;;;;5.02;72.08;98900.75;1756639;81;21012;-88
2022/01/08 11:03:00;;;;;;;27.20;11.30;;;;;;;5.06;71.03;98904.58;1723336;79;21097;-90
2022/01/08 11:05:28;;;;;;;34.05;12.03;;;;;;;5.10;70.20;98901.56;1715786;83;21045;-88
2022/01/08 11:08:19;;;;;;;23.73;9.33;;;;;;;5.06;69.48;98904.58;1715022;83;21235;-90
2022/01/08 11:10:46;;;;;;;29.02;11.97;;;;;;;5.12;69.10;98898.54;1753810;80;21023;-89
2022/01/08 11:13:18;;;;;;;27.75;11.45;;;;;;;5.04;69.63;98886.98;1730516;78;21182;-88
2022/01/08 11:15:51;;;;;;;24.50;10.30;;;;;;;5.14;68.35;98891.21;1725143;78;21081;-89
2022/01/08 11:18:19;;;;;;;32.03;13.10;;;;;;;5.25;69.53;98888.58;1712706;83;21009;-85
2022/01/08 11:20:47;;;;;;;23.47;11.35;;;;;;;5.45;69.90;98893.59;1740338;81;21588;-91
2022/01/08 11:23:19;;;;;;;23.25;11.55;;;;;;;5.44;68.20;98883.28;1785402;80;21000;-90
2022/01/08 11:25:51;;;;;;;26.27;13.48;;;;;;;5.38;67.37;98882.45;1789013;79;21018;-89
2022/01/08 11:28:19;;;;;;;27.30;12.88;;;;;;;5.40;68.58;98886.75;1780148;80;21023;-85
2022/01/08 11:30:58;;;;;;;24.35;11.35;;;;;;;5.37;69.09;98879.47;1760886;80;21211;-85
2022/01/08 11:33:30;;;;;;;26.23;12.13;;;;;;;5.29;68.57;98867.07;1775899;80;21007;-83
2022/01/08 11:35:57;;;;;;;27.98;12.80;;;;;;;5.11;67.32;98868.47;1749786;79;21032;-88
2022/01/08 11:38:27;;;;;;;29.12;12.15;;;;;;;5.06;68.35;98866.37;1742034;79;21015;-89
2022/01/08 11:40:58;;;;;;;36.98;14.20;;;;;;;5.05;68.97;98865.49;1774330;80;21033;-84
2022/01/08 11:43:29;;;;;;;28.85;11.40;;;;;;;5.05;69.08;98864.64;1774174;80;21050;-85
2022/01/08 11:46:04;;;;;;;29.45;12.25;;;;;;;4.95;68.53;98857.40;1773922;80;21055;-83
2022/01/08 11:48:42;;;;;;;30.88;13.35;;;;;;;4.87;68.54;98852.30;1773313;80;21076;-89
2022/01/08 11:51:20;;;;;;;25.15;12.33;;;;;;;4.85;69.01;98853.17;1779061;77;20961;-85
2022/01/08 11:53:58;;;;;;;25.60;12.85;;;;;;;4.78;69.10;98842.91;1778918;78;21099;-83
2022/01/08 11:56:37;;;;;;;31.60;12.10;;;;;;;4.76;69.29;98843.80;1779573;78;21040;-85
2022/01/08 11:59:18;;;;;;;22.37;10.78;;;;;;;4.75;69.41;98843.35;1779307;77;21101;-89
2022/01/08 12:02:07;;;;;;;24.23;11.50;;;;;;;4.75;68.84;98832.61;1791671;79;21007;-84
2022/01/08 12:04:36;;;;;;;28.05;12.70;;;;;;;4.68;69.16;98828.82;1772888;78;21087;-84
2022/01/08 12:07:40;;;;;;;25.32;11.95;;;;;;;4.67;69.23;98829.67;1791383;78;21041;-85
2022/01/08 12:10:19;;;;;;;28.85;12.15;;;;;;;4.78;69.10;98827.90;1789895;79;20992;-84
2022/01/08 12:13:02;;;;;;;28.47;12.35;;;;;;;4.67;69.15;98814.22;1819171;78;20964;-83
2022/01/08 12:15:46;;;;;;;28.25;12.88;;;;;;;4.57;69.09;98816.83;1797666;78;21019;-82
2022/01/08 12:18:19;;;;;;;23.57;11.65;;;;;;;4.54;69.67;98818.16;1813522;78;21042;-84
2022/01/08 12:20:53;;;;;;;29.45;11.90;;;;;;;4.56;69.11;98812.56;1785390;79;21010;-82
2022/01/08 12:23:38;;;;;;;23.87;10.20;;;;;;;4.61;69.73;98808.66;1770161;80;20991;-83
2022/01/08 12:26:23;;;;;;;20.82;8.65;;;;;;;4.67;69.26;98805.20;1779147;79;21088;-83
2022/01/08 12:28:58;;;;;;;21.80;8.53;;;;;;;4.73;68.24;98792.29;1750327;78;21038;-82
2022/01/08 12:31:44;;;;;;;28.25;9.30;;;;;;;4.65;67.50;98791.48;1717692;81;21061;-83
2022/01/08 12:34:37;;;;;;;23.47;9.15;;;;;;;4.72;68.29;98791.88;1770090;79;21003;-84
2022/01/08 12:37:12;;;;;;;19.60;7.92;;;;;;;4.72;68.66;98786.73;1724278;81;21094;-82
2022/01/08 12:39:50;;;;;;;18.50;8.13;;;;;;;4.79;68.09;98776.80;1783590;78;21015;-83
2022/01/08 12:42:26;;;;;;;19.00;8.40;;;;;;;4.69;67.64;98773.42;1791764;79;20968;-84
2022/01/08 12:45:31;;;;;;;21.02;8.68;;;;;;;4.73;68.20;98770.40;1773917;79;22072;-88
2022/01/08 12:48:09;;;;;;;18.85;8.03;;;;;;;4.64;67.33;98769.19;1703356;83;21037;-86
2022/01/08 12:50:44;;;;;;;22.15;8.95;;;;;;;4.69;68.03;98757.13;1690259;83;21044;-85
2022/01/08 12:53:21;;;;;;;18.25;8.63;;;;;;;4.66;67.75;98753.30;1732035;83;21045;-83
2022/01/08 12:56:00;;;;;;;19.23;9.03;;;;;;;4.72;67.52;98757.12;1732274;83;20998;-83
2022/01/08 12:58:34;;;;;;;16.67;7.47;;;;;;;4.83;68.17;98751.44;1732146;83;21135;-84
2022/01/08 13:01:13;;;;;;;25.55;10.25;;;;;;;4.87;67.90;98749.26;1732052;83;21088;-85
2022/01/08 13:03:48;;;;;;;33.88;12.33;;;;;;;4.89;68.07;98754.41;1701914;81;21157;-89
2022/01/08 13:06:34;;;;;;;27.00;12.03;;;;;;;5.04;68.32;98746.56;1677842;85;21046;-85
2022/01/08 13:09:03;;;;;;;;;;;;;;;5.06;68.08;98749.13;1694149;83;21103;-91
2022/01/08 13:11:33;;;;;;;25.90;11.97;;;;;;;5.12;68.33;98752.94;1721222;79;20101;-91
2022/01/08 13:14:18;;;;;;;22.95;9.78;;;;;;;5.11;68.54;98748.23;1762268;79;21061;-89
2022/01/08 13:16:54;;;;;;;18.23;8.43;;;;;;;5.11;67.74;98752.50;1774851;79;21147;-90
2022/01/08 13:19:30;;;;;;;19.05;8.38;;;;;;;5.13;67.69;98745.62;1678262;82;21167;-91
2022/01/08 13:22:04;;;;;;;18.65;7.78;;;;;;;5.12;66.97;98744.77;1719170;79;21180;-89
2022/01/08 13:24:45;;;;;;;16.87;8.00;;;;;;;5.13;66.87;98741.75;1699240;80;21057;-84
2022/01/08 13:27:22;;;;;;;16.32;7.58;;;;;;;5.15;67.55;98739.61;1684732;80;21079;-91
2022/01/08 13:29:56;;;;;;;17.55;8.13;;;;;;;5.06;66.42;98730.66;1721407;80;21100;-91
2022/01/08 13:32:26;;;;;;;;;;;;;;;5.08;67.71;98725.49;1731739;80;21127;-90
2022/01/08 13:34:59;;;;;;;19.62;8.58;;;;;;;5.03;67.14;98728.53;1749117;78;20780;-91
2022/01/08 13:37:29;;;;;;;19.52;8.08;;;;;;;4.99;67.60;98725.12;1766602;80;21644;-85
2022/01/08 13:40:02;;;;;;;17.60;8.45;;;;;;;4.95;67.26;98732.05;1714690;79;21139;-90
2022/01/08 13:42:38;;;;;;;19.75;8.78;;;;;;;4.86;67.45;98728.25;1694796;82;21132;-90
2022/01/08 13:45:14;;;;;;;23.77;10.63;;;;;;;4.85;67.73;98735.53;1766530;79;21615;-90
2022/01/08 13:47:47;;;;;;;21.10;8.60;;;;;;;4.80;67.27;98724.88;1751291;78;21066;-88
2022/01/08 13:50:29;;;;;;;25.62;10.05;;;;;;;4.78;67.69;98721.86;1731126;80;21151;-89
2022/01/08 13:53:05;;;;;;;32.90;10.58;;;;;;;4.63;67.63;98724.55;1663828;80;21079;-90
2022/01/08 13:55:40;;;;;;;25.50;11.48;;;;;;;4.66;68.18;98718.54;1688526;80;21089;-90
2022/01/08 13:58:16;;;;;;;19.42;9.68;;;;;;;4.63;68.34;98714.69;1701091;81;21587;-89
2022/01/08 14:00:51;;;;;;;25.15;10.28;;;;;;;4.58;68.19;98712.16;1690703;80;21207;-91
2022/01/08 14:03:31;;;;;;;21.77;9.48;;;;;;;4.58;68.29;98715.57;1746644;79;21154;-92
2022/01/08 14:06:04;;;;;;;21.30;8.95;;;;;;;4.52;68.35;98724.62;1710841;79;21026;-91
2022/01/08 14:08:33;;;;;;;20.73;9.43;;;;;;;4.52;68.42;98706.61;1708773;78;21270;-85
2022/01/08 14:11:07;;;;;;;24.70;10.15;;;;;;;4.48;68.67;98711.36;1706898;78;21123;-91
2022/01/08 14:13:55;;;;;;;29.92;9.65;;;;;;;4.45;68.57;98710.08;1703076;79;21099;-91
2022/01/08 14:16:35;;;;;;;23.42;8.80;;;;;;;4.45;68.87;98715.66;1679636;81;21058;31
2022/01/08 14:19:15;;;;;;;21.45;9.83;;;;;;;4.39;68.98;98708.83;1707619;80;21155;-90
2022/01/08 14:21:59;;;;;;;19.93;9.03;;;;;;;4.39;69.16;98712.70;1748715;81;21185;-91
2022/01/08 14:24:36;;;;;;;21.95;9.85;;;;;;;4.37;69.17;98717.84;1704513;80;21508;-89
2022/01/08 14:27:11;;;;;;;25.32;9.58;;;;;;;4.37;69.39;98722.98;1760948;79;21056;-92
2022/01/08 14:29:45;;;;;;;27.42;10.95;;;;;;;4.40;69.45;98723.42;1678629;81;21124;-90
2022/01/08 14:32:16;;;;;;;25.12;11.20;;;;;;;4.41;69.39;98721.26;1683018;81;21075;-90
2022/01/08 14:34:51;;;;;;;22.20;10.43;;;;;;;4.36;69.25;98721.30;1669510;80;21107;-90
2022/01/08 14:37:43;;;;;;;20.62;10.10;;;;;;;4.32;69.31;98715.75;1709932;81;21163;-88
2022/01/08 14:40:25;;;;;;;19.20;10.10;;;;;;;4.23;69.74;98711.93;1741505;80;21179;-88
2022/01/08 14:43:17;;;;;;;23.30;9.25;;;;;;;4.22;69.64;98710.23;1735432;79;21145;-88
2022/01/08 14:45:50;;;;;;;25.12;9.78;;;;;;;4.18;69.61;98709.83;1700284;80;21634;-91
2022/01/08 14:48:30;;;;;;;21.42;9.48;;;;;;;4.08;69.60;98710.31;1765488;80;21456;-90
2022/01/08 14:50:57;;;;;;;21.85;9.93;;;;;;;4.03;69.75;98700.46;1742580;79;21404;-86
2022/01/08 14:53:24;;;;;;;18.48;9.08;;;;;;;3.98;70.00;98697.08;1729254;79;21021;-87
2022/01/08 14:55:51;;;;;;;19.37;9.08;;;;;;;3.94;70.21;98694.94;1744448;79;21138;-85
2022/01/08 14:58:19;;;;;;;23.60;9.38;;;;;;;3.94;70.25;98694.09;1742250;79;20994;-89
2022/01/08 15:00:47;;;;;;;22.58;9.85;;;;;;;3.96;70.39;98694.94;1741331;80;21010;-84
2022/01/08 15:03:15;;;;;;;21.55;9.05;;;;;;;3.96;70.09;98688.52;1737624;82;21034;-82
2022/01/08 15:05:42;;;;;;;23.40;9.78;;;;;;;3.95;70.42;98697.08;1740624;80;21027;-84
2022/01/08 15:08:10;;;;;;;21.97;10.18;;;;;;;3.94;70.13;98683.37;1713338;80;21098;-90
2022/01/08 15:10:37;;;;;;;24.10;10.30;;;;;;;3.92;70.35;98688.08;1705886;84;21055;-89
2022/01/08 15:13:05;;;;;;;21.87;9.75;;;;;;;3.91;70.44;98686.38;1702975;84;21205;-91
2022/01/08 15:15:32;;;;;;;21.82;9.60;;;;;;;3.91;70.54;98687.67;1732780;82;21031;-91
2022/01/08 15:18:00;;;;;;;24.60;10.25;;;;;;;3.90;70.55;98684.25;1732725;82;21015;-90
2022/01/08 15:20:27;;;;;;;22.17;10.63;;;;;;;3.90;70.58;98685.53;1731907;83;21014;-91
2022/01/08 15:22:55;;;;;;;26.50;12.10;;;;;;;3.92;70.71;98679.08;1732099;82;21070;-88
2022/01/08 15:25:24;;;;;;;27.05;11.68;;;;;;;3.89;70.46;98681.23;1713774;79;21232;-90
2022/01/08 15:27:52;;;;;;;25.02;10.82;;;;;;;3.88;70.38;98682.52;1700642;83;21048;-90
2022/01/08 15:30:21;;;;;;;29.63;11.95;;;;;;;3.86;70.75;98682.56;1710267;79;21232;-89
2022/01/08 15:32:48;;;;;;;25.00;10.58;;;;;;;3.87;70.94;98686.82;1725399;82;21167;-90
2022/01/08 15:35:16;;;;;;;28.62;11.35;;;;;;;3.89;70.59;98687.67;1736490;81;20973;-88
2022/01/08 15:37:43;;;;;;;24.90;11.05;;;;;;;3.87;70.72;98682.97;1728278;82;21043;-89
2022/01/08 15:40:12;;;;;;;22.13;10.18;;;;;;;3.89;70.86;98670.11;1719384;81;21017;-89
2022/01/08 15:42:43;;;;;;;22.42;10.05;;;;;;;3.90;70.79;98671.80;1745249;79;21088;-89
2022/01/08 15:45:11;;;;;;;23.60;11.10;;;;;;;3.91;70.87;98669.66;1742108;81;21012;-89
2022/01/08 15:47:39;;;;;;;27.37;11.73;;;;;;;3.93;70.96;98670.52;1704787;83;21102;-90
2022/01/08 15:50:07;;;;;;;24.25;10.75;;;;;;;3.96;70.79;98666.66;1733558;82;21024;-90
2022/01/08 15:52:34;;;;;;;31.37;11.50;;;;;;;3.93;70.73;98655.92;1728311;82;21039;-88